createdAt,value
2017-10-15T00:02:24.897Z,53.30
2017-10-15T00:04:53.035Z,54.70
2017-10-15T00:07:21.140Z,56.20
2017-10-15T00:09:49.244Z,57.70
2017-10-15T00:12:17.344Z,57.40
2017-10-15T00:14:45.436Z,57.70
2017-10-15T00:17:14.418Z,58.60
2017-10-15T00:19:42.496Z,58.50
2017-10-15T00:22:10.594Z,58.80
2017-10-15T00:24:38.700Z,58.10
2017-10-15T00:27:06.831Z,58.10
2017-10-15T00:29:35.720Z,58.80
2017-10-15T00:32:04.583Z,59.80
2017-10-15T00:34:32.671Z,59.70
2017-10-15T00:37:00.772Z,58.70
2017-10-15T00:39:28.868Z,58.30
2017-10-15T00:41:56.977Z,58.30
2017-10-15T00:44:25.079Z,57.70
2017-10-15T00:46:53.975Z,56.80
2017-10-15T00:49:22.925Z,57.70
2017-10-15T00:51:51.032Z,57.80
2017-10-15T00:54:19.900Z,59.70
2017-10-15T00:56:48.006Z,59.60
2017-10-15T00:59:16.852Z,63.70
2017-10-15T01:01:44.948Z,63.50
2017-10-15T01:04:13.028Z,63.50
2017-10-15T01:06:41.918Z,64.20
2017-10-15T01:09:10.782Z,64.40
2017-10-15T01:11:38.872Z,64.20
2017-10-15T01:14:06.982Z,64.20
2017-10-15T01:16:35.238Z,65.60
2017-10-15T01:19:04.111Z,63.70
2017-10-15T01:21:32.300Z,63.60
2017-10-15T01:24:01.189Z,60.30
2017-10-15T01:26:30.051Z,59.50
2017-10-15T01:28:58.166Z,59.80
2017-10-15T01:31:27.030Z,59.20
2017-10-15T01:33:55.336Z,59.10
2017-10-15T01:36:24.187Z,57.60
2017-10-15T01:38:52.292Z,57.50
2017-10-15T01:41:21.152Z,57.00
2017-10-15T01:43:49.264Z,56.90
2017-10-15T01:46:18.133Z,56.80
2017-10-15T01:48:46.236Z,56.60
2017-10-15T01:51:14.321Z,56.40
2017-10-15T01:53:42.420Z,57.90
2017-10-15T01:56:10.500Z,58.60
2017-10-15T01:58:38.587Z,59.00
2017-10-15T02:01:06.672Z,59.20
2017-10-15T02:03:34.824Z,59.20
2017-10-15T02:06:02.925Z,59.10
2017-10-15T02:08:31.803Z,60.00
2017-10-15T02:10:59.903Z,59.90
2017-10-15T02:13:28.763Z,59.30
2017-10-15T02:15:56.856Z,59.30
2017-10-15T02:18:25.740Z,61.40
2017-10-15T02:20:54.603Z,62.30
2017-10-15T02:23:22.700Z,62.20
2017-10-15T02:25:50.776Z,64.40
2017-10-15T02:28:18.863Z,64.40
2017-10-15T02:30:47.716Z,63.50
2017-10-15T02:33:15.920Z,63.50
2017-10-15T02:35:43.999Z,62.70
2017-10-15T02:38:12.856Z,62.70
2017-10-15T02:40:40.951Z,62.60
2017-10-15T02:43:09.183Z,62.50
2017-10-15T02:45:37.273Z,62.10
2017-10-15T02:48:05.370Z,63.20
2017-10-15T02:50:33.469Z,62.10
2017-10-15T02:53:01.584Z,62.60
2017-10-15T02:55:29.680Z,63.70
2017-10-15T02:57:57.781Z,64.80
2017-10-15T03:00:26.706Z,65.90
2017-10-15T03:02:54.812Z,66.00
2017-10-15T03:05:22.901Z,65.10
2017-10-15T03:07:50.988Z,64.40
2017-10-15T03:10:19.845Z,62.40
2017-10-15T03:12:47.945Z,62.20
2017-10-15T03:15:18.689Z,60.00
2017-10-15T03:17:47.564Z,59.20
2017-10-15T03:20:15.675Z,59.00
2017-10-15T03:22:44.175Z,60.10
2017-10-15T03:25:12.268Z,59.60
2017-10-15T03:27:40.351Z,59.90
2017-10-15T03:30:08.730Z,59.10
2017-10-15T03:32:37.616Z,62.00
2017-10-15T03:35:05.711Z,61.20
2017-10-15T03:37:33.812Z,61.40
2017-10-15T03:40:01.904Z,61.40
2017-10-15T03:42:29.991Z,59.80
2017-10-15T03:44:58.696Z,60.10
2017-10-15T03:47:26.787Z,62.30
2017-10-15T03:49:54.872Z,63.00
2017-10-15T03:52:23.745Z,64.80
2017-10-15T03:54:51.847Z,64.70
2017-10-15T03:57:20.687Z,65.00
2017-10-15T03:59:48.781Z,64.90
2017-10-15T04:02:16.866Z,65.30
2017-10-15T04:04:45.740Z,63.40
2017-10-15T04:07:13.824Z,63.50
2017-10-15T04:09:41.907Z,63.60
2017-10-15T04:12:10.767Z,65.70
2017-10-15T04:14:38.860Z,65.70
2017-10-15T04:17:06.957Z,65.20
2017-10-15T04:19:35.811Z,67.70
2017-10-15T04:22:03.907Z,67.60
2017-10-15T04:24:32.780Z,66.70
2017-10-15T04:27:00.867Z,66.60
2017-10-15T04:29:29.731Z,66.00
2017-10-15T04:31:57.823Z,65.70
2017-10-15T04:34:25.895Z,66.80
2017-10-15T04:36:53.989Z,68.90
2017-10-15T04:39:22.839Z,67.20
2017-10-15T04:41:50.918Z,67.00
2017-10-15T04:44:19.014Z,64.80
2017-10-15T04:46:47.860Z,65.70
2017-10-15T04:49:15.952Z,65.60
2017-10-15T04:51:44.036Z,65.80
2017-10-15T04:54:12.132Z,65.00
2017-10-15T04:56:40.988Z,66.40
2017-10-15T04:59:09.081Z,66.40
2017-10-15T05:01:37.162Z,66.80
2017-10-15T05:04:06.033Z,65.60
2017-10-15T05:06:34.111Z,65.60
2017-10-15T05:09:02.215Z,65.00
2017-10-15T05:11:30.325Z,65.30
2017-10-15T05:13:58.407Z,66.50
2017-10-15T05:16:26.500Z,66.30
2017-10-15T05:18:54.589Z,66.80
2017-10-15T05:21:23.443Z,68.50
2017-10-15T05:23:51.543Z,68.40
2017-10-15T05:26:19.626Z,70.10
2017-10-15T05:28:48.484Z,68.50
2017-10-15T05:31:16.568Z,68.40
2017-10-15T05:33:44.665Z,69.10
2017-10-15T05:36:13.515Z,67.50
2017-10-15T05:38:41.616Z,67.40
2017-10-15T05:41:09.695Z,69.50
2017-10-15T05:43:38.567Z,69.50
2017-10-15T05:46:06.652Z,69.40
2017-10-15T05:48:34.730Z,70.00
2017-10-15T05:51:02.809Z,69.50
2017-10-15T05:53:31.736Z,72.70
2017-10-15T05:55:59.821Z,72.50
2017-10-15T05:58:27.916Z,70.70
2017-10-15T06:00:55.992Z,69.80
2017-10-15T06:03:24.081Z,71.20
2017-10-15T06:05:52.159Z,68.60
2017-10-15T06:08:21.031Z,67.30
2017-10-15T06:10:49.115Z,67.10
2017-10-15T06:13:17.207Z,66.10
2017-10-15T06:15:45.304Z,67.50
2017-10-15T06:18:13.400Z,68.50
2017-10-15T06:20:41.489Z,68.20
2017-10-15T06:23:09.587Z,65.00
2017-10-15T06:25:38.443Z,63.70
2017-10-15T06:28:06.554Z,63.70
2017-10-15T06:30:35.407Z,65.00
2017-10-15T06:33:03.492Z,65.00
2017-10-15T06:35:31.588Z,64.40
2017-10-15T06:37:59.669Z,63.20
2017-10-15T06:40:28.523Z,61.10
2017-10-15T06:42:56.615Z,61.00
2017-10-15T06:45:24.704Z,60.30
2017-10-15T06:47:53.570Z,63.40
2017-10-15T06:50:21.660Z,63.40
2017-10-15T06:52:49.748Z,63.40
2017-10-15T06:55:20.562Z,63.40
2017-10-15T06:57:48.648Z,63.40
2017-10-15T07:00:17.941Z,61.40
2017-10-15T07:02:46.023Z,61.30
2017-10-15T07:05:14.876Z,62.50
2017-10-15T07:07:42.976Z,62.40
2017-10-15T07:10:11.062Z,63.60
2017-10-15T07:12:39.920Z,62.90
2017-10-15T07:15:08.015Z,62.80
2017-10-15T07:17:36.108Z,62.50
2017-10-15T07:20:04.972Z,64.20
2017-10-15T07:22:33.206Z,64.00
2017-10-15T07:25:01.312Z,64.10
2017-10-15T07:27:29.407Z,66.80
2017-10-15T07:29:58.288Z,64.60
2017-10-15T07:32:26.359Z,64.40
2017-10-15T07:34:54.451Z,62.10
2017-10-15T07:37:23.304Z,60.30
2017-10-15T07:39:51.409Z,60.20
2017-10-15T07:42:20.276Z,60.20
2017-10-15T07:44:48.377Z,60.00
2017-10-15T07:47:17.254Z,58.60
2017-10-15T07:49:45.343Z,58.60
2017-10-15T07:52:14.196Z,58.20
2017-10-15T07:54:42.303Z,58.20
2017-10-15T07:57:11.186Z,62.60
2017-10-15T07:59:40.048Z,64.70
2017-10-15T08:02:08.136Z,64.60
2017-10-15T08:04:36.219Z,61.10
2017-10-15T08:07:04.303Z,61.90
2017-10-15T08:09:33.180Z,61.80
2017-10-15T08:12:01.263Z,61.70
2017-10-15T08:14:30.136Z,59.20
2017-10-15T08:16:58.220Z,59.20
2017-10-15T08:19:26.311Z,59.20
2017-10-15T08:21:55.168Z,58.00
2017-10-15T08:24:23.668Z,58.00
2017-10-15T08:26:52.520Z,56.40
2017-10-15T08:29:20.629Z,56.30
2017-10-15T08:31:48.729Z,55.70
2017-10-15T08:34:16.841Z,56.60
2017-10-15T08:36:45.026Z,56.10
2017-10-15T08:39:13.129Z,56.70
2017-10-15T08:41:41.988Z,58.60
2017-10-15T08:44:10.092Z,58.50
2017-10-15T08:46:38.952Z,58.70
2017-10-15T08:49:07.049Z,58.60
2017-10-15T08:51:35.131Z,59.40
2017-10-15T08:54:03.994Z,59.70
2017-10-15T08:56:32.147Z,59.50
2017-10-15T08:59:00.243Z,59.70
2017-10-15T09:01:28.457Z,59.80
2017-10-15T09:03:56.615Z,59.30
2017-10-15T09:06:25.469Z,59.90
2017-10-15T09:08:53.565Z,59.80
2017-10-15T09:11:21.651Z,60.00
2017-10-15T09:13:50.529Z,59.70
2017-10-15T09:16:18.645Z,59.60
2017-10-15T09:18:46.751Z,59.20
2017-10-15T09:21:14.893Z,58.40
2017-10-15T09:23:42.998Z,58.20
2017-10-15T09:26:11.077Z,56.40
2017-10-15T09:28:39.168Z,55.50
2017-10-15T09:31:07.337Z,54.90
2017-10-15T09:33:35.429Z,53.90
2017-10-15T09:36:04.317Z,53.90
2017-10-15T09:38:32.396Z,53.80
2017-10-15T09:41:01.258Z,53.40
2017-10-15T09:43:29.336Z,52.70
2017-10-15T09:45:57.423Z,54.40
2017-10-15T09:48:25.517Z,53.70
2017-10-15T09:50:54.380Z,50.70
2017-10-15T09:53:22.464Z,50.60
2017-10-15T09:55:50.550Z,50.00
2017-10-15T09:58:19.398Z,49.00
2017-10-15T10:00:47.488Z,49.00
2017-10-15T10:03:15.564Z,48.90
2017-10-15T10:05:43.644Z,48.50
2017-10-15T10:08:11.744Z,47.80
2017-10-15T10:10:39.877Z,47.70
2017-10-15T10:13:07.947Z,47.40
2017-10-15T10:15:36.039Z,46.60
2017-10-15T10:18:04.333Z,46.60
2017-10-15T10:20:33.191Z,46.00
2017-10-15T10:23:02.635Z,45.90
2017-10-15T10:25:30.728Z,44.70
2017-10-15T10:27:58.809Z,42.60
2017-10-15T10:30:26.895Z,41.50
2017-10-15T10:32:54.987Z,41.00
2017-10-15T10:35:23.056Z,40.30
2017-10-15T10:37:51.139Z,40.70
2017-10-15T10:40:19.224Z,40.40
2017-10-15T10:42:48.069Z,39.70
2017-10-15T10:45:16.925Z,37.90
2017-10-15T10:47:45.005Z,37.90
2017-10-15T10:50:13.091Z,37.50
2017-10-15T10:52:41.167Z,36.70
2017-10-15T10:55:09.248Z,36.10
2017-10-15T10:57:38.079Z,36.40
2017-10-15T11:00:06.172Z,36.30
2017-10-15T11:02:35.020Z,35.90
2017-10-15T11:05:03.195Z,36.60
2017-10-15T11:07:31.273Z,35.20
2017-10-15T11:09:59.361Z,35.50
2017-10-15T11:12:27.440Z,34.40
2017-10-15T11:14:56.319Z,34.00
2017-10-15T11:17:24.396Z,33.90
2017-10-15T11:19:52.551Z,34.20
2017-10-15T11:22:20.634Z,34.00
2017-10-15T11:24:48.767Z,33.30
2017-10-15T11:27:17.630Z,33.60
2017-10-15T11:29:46.490Z,33.40
2017-10-15T11:32:14.592Z,33.20
2017-10-15T11:34:43.446Z,32.60
2017-10-15T11:37:11.548Z,32.50
2017-10-15T11:39:40.409Z,32.60
2017-10-15T11:42:08.496Z,32.50
2017-10-15T11:44:36.564Z,32.80
2017-10-15T11:47:04.652Z,32.50
2017-10-15T11:49:33.516Z,31.60
2017-10-15T11:52:01.592Z,31.50
2017-10-15T11:54:29.676Z,31.70
2017-10-15T11:56:57.760Z,30.90
2017-10-15T11:59:25.840Z,30.50
2017-10-15T12:01:54.683Z,29.30
2017-10-15T12:04:22.772Z,29.30
2017-10-15T12:06:50.849Z,29.30
2017-10-15T12:09:18.932Z,29.40
2017-10-15T12:11:47.020Z,28.70
2017-10-15T12:14:15.859Z,27.80
2017-10-15T12:16:43.939Z,27.70
2017-10-15T12:19:12.027Z,27.40
2017-10-15T12:21:40.118Z,26.60
2017-10-15T12:24:08.211Z,26.80
2017-10-15T12:26:37.069Z,26.80
2017-10-15T12:29:05.156Z,26.70
2017-10-15T12:31:34.026Z,25.60
2017-10-15T12:34:02.114Z,25.50
2017-10-15T12:36:30.999Z,25.40
2017-10-15T12:38:59.075Z,25.40
2017-10-15T12:41:27.171Z,25.00
2017-10-15T12:43:56.097Z,21.80
2017-10-15T12:46:24.195Z,21.70
2017-10-15T12:48:52.279Z,23.10
2017-10-15T12:51:20.366Z,24.50
2017-10-15T12:53:48.442Z,24.40
2017-10-15T12:56:17.464Z,25.30
2017-10-15T12:58:45.552Z,25.20
2017-10-15T13:01:13.644Z,24.80
2017-10-15T13:03:41.737Z,23.80
2017-10-15T13:06:09.823Z,23.80
2017-10-15T13:08:38.699Z,24.00
2017-10-15T13:11:06.800Z,23.80
2017-10-15T13:13:35.649Z,21.70
2017-10-15T13:16:03.755Z,21.50
2017-10-15T13:18:32.626Z,19.90
2017-10-15T13:21:00.731Z,20.00
2017-10-15T13:23:29.580Z,21.30
2017-10-15T13:25:57.680Z,21.20
2017-10-15T13:28:25.753Z,22.10
2017-10-15T13:30:54.626Z,22.70
2017-10-15T13:33:22.726Z,22.60
2017-10-15T13:35:51.602Z,23.10
2017-10-15T13:38:19.687Z,23.00
2017-10-15T13:40:48.549Z,22.60
2017-10-15T13:43:16.625Z,22.50
2017-10-15T13:45:44.734Z,21.10
2017-10-15T13:48:13.580Z,20.50
2017-10-15T13:50:41.676Z,20.40
2017-10-15T13:53:10.535Z,20.90
2017-10-15T13:55:39.633Z,20.80
2017-10-15T13:58:07.738Z,20.90
2017-10-15T14:00:36.605Z,20.00
2017-10-15T14:03:04.743Z,19.90
2017-10-15T14:05:32.971Z,19.20
2017-10-15T14:08:01.867Z,18.10
2017-10-15T14:10:30.053Z,18.00
2017-10-15T14:12:58.944Z,17.80
2017-10-15T14:15:27.822Z,18.60
2017-10-15T14:17:55.964Z,18.50
2017-10-15T14:20:24.134Z,20.10
2017-10-15T14:22:52.299Z,19.90
2017-10-15T14:25:20.441Z,19.80
2017-10-15T14:27:48.578Z,20.10
2017-10-15T14:30:16.732Z,20.50
2017-10-15T14:32:44.851Z,19.80
2017-10-15T14:35:13.031Z,20.30
2017-10-15T14:37:41.923Z,20.60
2017-10-15T14:40:10.819Z,20.60
2017-10-15T14:42:39.743Z,20.80
2017-10-15T14:45:07.870Z,20.80
2017-10-15T14:47:36.802Z,21.30
2017-10-15T14:50:04.935Z,21.20
2017-10-15T14:52:33.883Z,22.10
2017-10-15T14:55:02.014Z,21.90
2017-10-15T14:57:30.939Z,21.90
2017-10-15T14:59:59.076Z,21.90
2017-10-15T15:02:27.194Z,21.50
2017-10-15T15:04:55.289Z,21.40
2017-10-15T15:07:23.399Z,21.50
2017-10-15T15:09:52.297Z,22.20
2017-10-15T15:12:21.184Z,22.30
2017-10-15T15:14:49.286Z,22.80
2017-10-15T15:17:17.443Z,22.30
2017-10-15T15:19:45.618Z,22.60
2017-10-15T15:22:13.757Z,23.00
2017-10-15T15:24:41.862Z,22.60
2017-10-15T15:27:10.822Z,22.70
2017-10-15T15:29:38.960Z,22.70
2017-10-15T15:32:07.131Z,22.80
2017-10-15T15:34:35.244Z,23.00
2017-10-15T15:37:03.348Z,23.00
2017-10-15T15:39:32.240Z,23.20
2017-10-15T15:42:00.373Z,23.10
2017-10-15T15:44:29.325Z,22.80
2017-10-15T15:46:57.466Z,22.90
2017-10-15T15:49:26.357Z,22.80
2017-10-15T15:51:54.519Z,22.50
2017-10-15T15:54:22.634Z,22.90
2017-10-15T15:56:50.789Z,22.90
2017-10-15T15:59:19.674Z,23.80
2017-10-15T16:01:48.601Z,23.70
2017-10-15T16:04:17.963Z,23.60
2017-10-15T16:06:46.098Z,24.20
2017-10-15T16:09:14.239Z,24.70
2017-10-15T16:11:42.429Z,25.00
2017-10-15T16:14:11.327Z,26.10
2017-10-15T16:16:39.437Z,25.90
2017-10-15T16:19:17.576Z,26.50
2017-10-15T16:21:45.716Z,26.50
2017-10-15T16:24:13.833Z,27.00
2017-10-15T16:26:41.996Z,27.50
2017-10-15T16:29:11.004Z,28.20
2017-10-15T16:31:39.162Z,28.10
2017-10-15T16:34:16.749Z,29.50
2017-10-15T16:36:44.875Z,29.50
2017-10-15T16:39:12.992Z,30.30
2017-10-15T16:41:42.693Z,30.80
2017-10-15T16:44:10.795Z,30.50
2017-10-15T16:46:39.663Z,31.90
2017-10-15T16:49:07.741Z,31.80
2017-10-15T16:51:35.835Z,32.10
2017-10-15T16:54:04.673Z,32.80
2017-10-15T16:56:32.835Z,32.80
2017-10-15T16:59:00.950Z,33.30
2017-10-15T17:01:29.054Z,34.00
2017-10-15T17:03:57.893Z,35.90
2017-10-15T17:06:25.987Z,35.10
2017-10-15T17:08:54.874Z,36.90
2017-10-15T17:11:22.966Z,36.70
2017-10-15T17:13:51.811Z,38.40
2017-10-15T17:16:19.933Z,37.60
2017-10-15T17:18:48.799Z,38.70
2017-10-15T17:21:16.890Z,38.60
2017-10-15T17:23:45.766Z,40.20
2017-10-15T17:26:13.865Z,40.10
2017-10-15T17:28:42.728Z,40.60
2017-10-15T17:31:10.820Z,40.50
2017-10-15T17:33:39.720Z,41.50
2017-10-15T17:36:08.562Z,41.80
2017-10-15T17:38:36.657Z,41.60
2017-10-15T17:41:04.732Z,41.50
2017-10-15T17:43:32.816Z,42.30
2017-10-15T17:46:01.678Z,41.90
2017-10-15T17:48:37.129Z,41.90
2017-10-15T17:51:06.346Z,42.40
2017-10-15T17:53:35.205Z,43.90
2017-10-15T17:56:03.281Z,43.30
2017-10-15T17:58:31.368Z,43.90
2017-10-15T18:00:59.440Z,44.10
2017-10-15T18:03:27.524Z,44.20
2017-10-15T18:05:55.595Z,44.40
2017-10-15T18:08:24.461Z,45.40
2017-10-15T18:10:52.640Z,45.10
2017-10-15T18:13:20.737Z,45.20
2017-10-15T18:15:48.816Z,45.30
2017-10-15T18:18:17.678Z,45.80
2017-10-15T18:20:45.761Z,45.70
2017-10-15T18:23:13.873Z,45.90
2017-10-15T18:25:41.992Z,45.70
2017-10-15T18:28:10.094Z,46.00
2017-10-15T18:30:38.182Z,45.80
2017-10-15T18:33:07.044Z,46.50
2017-10-15T18:35:35.129Z,46.40
2017-10-15T18:38:03.231Z,46.10
2017-10-15T18:40:32.088Z,46.30
2017-10-15T18:43:00.184Z,46.80
2017-10-15T18:45:29.044Z,46.60
2017-10-15T18:47:57.154Z,46.50
2017-10-15T18:50:25.316Z,46.10
2017-10-15T18:52:55.506Z,46.70
2017-10-15T18:55:23.612Z,46.60
2017-10-15T18:57:52.490Z,47.40
2017-10-15T19:00:20.578Z,47.20
2017-10-15T19:02:49.440Z,47.70
2017-10-15T19:05:17.536Z,47.60
2017-10-15T19:07:46.406Z,47.50
2017-10-15T19:10:14.636Z,47.40
2017-10-15T19:12:42.747Z,47.70
2017-10-15T19:15:10.859Z,47.40
2017-10-15T19:17:38.989Z,47.20
2017-10-15T19:20:07.082Z,47.60
2017-10-15T19:22:35.180Z,47.30
2017-10-15T19:25:03.278Z,47.70
2017-10-15T19:27:31.406Z,47.80
2017-10-15T19:29:59.522Z,48.20
2017-10-15T19:32:27.621Z,48.80
2017-10-15T19:34:55.741Z,49.20
2017-10-15T19:37:23.849Z,49.20
2017-10-15T19:39:51.978Z,49.30
2017-10-15T19:42:20.845Z,49.60
2017-10-15T19:44:48.965Z,49.50
2017-10-15T19:47:17.074Z,49.40
2017-10-15T19:49:45.188Z,49.30
2017-10-15T19:52:13.308Z,49.00
2017-10-15T19:54:41.417Z,48.80
2017-10-15T19:57:09.518Z,48.80
2017-10-15T19:59:38.396Z,48.90
2017-10-15T20:02:06.472Z,48.80
2017-10-15T20:04:35.348Z,48.90
2017-10-15T20:07:03.425Z,48.80
2017-10-15T20:09:31.517Z,48.80
2017-10-15T20:12:00.390Z,48.50
2017-10-15T20:14:28.508Z,48.40
2017-10-15T20:16:56.613Z,48.40
2017-10-15T20:19:24.731Z,47.80
2017-10-15T20:21:52.842Z,47.80
2017-10-15T20:24:20.974Z,47.90
2017-10-15T20:26:49.850Z,49.00
2017-10-15T20:29:18.744Z,48.90
2017-10-15T20:31:47.628Z,48.80
2017-10-15T20:34:15.724Z,48.70
2017-10-15T20:36:44.580Z,48.10
2017-10-15T20:39:12.673Z,48.00
2017-10-15T20:41:40.756Z,48.60
2017-10-15T20:44:09.617Z,48.80
2017-10-15T20:46:37.707Z,48.60
2017-10-15T20:49:06.591Z,49.00
2017-10-15T20:51:34.678Z,48.90
2017-10-15T20:54:03.538Z,48.90
2017-10-15T20:56:31.619Z,48.60
2017-10-15T20:58:59.704Z,48.60
2017-10-15T21:01:28.669Z,48.50
2017-10-15T21:03:56.770Z,48.50
2017-10-15T21:06:24.868Z,48.50
2017-10-15T21:08:53.830Z,49.30
2017-10-15T21:11:21.920Z,49.20
2017-10-15T21:13:50.800Z,49.20
2017-10-15T21:16:18.883Z,49.00
2017-10-15T21:18:47.746Z,49.10
2017-10-15T21:21:15.844Z,49.00
2017-10-15T21:23:44.705Z,48.40
2017-10-15T21:26:12.800Z,48.80
2017-10-15T21:28:40.977Z,48.60
2017-10-15T21:31:09.083Z,48.90
2017-10-15T21:33:37.948Z,49.30
2017-10-15T21:36:06.812Z,49.20
2017-10-15T21:38:34.906Z,49.10
2017-10-15T21:41:03.012Z,49.30
2017-10-15T21:43:31.112Z,49.40
2017-10-15T21:46:00.054Z,49.00
2017-10-15T21:48:28.147Z,48.90
2017-10-15T21:50:56.240Z,49.00
2017-10-15T21:53:24.328Z,49.90
2017-10-15T21:55:52.434Z,50.00
2017-10-15T21:58:20.551Z,49.70
2017-10-15T22:00:48.631Z,49.50
2017-10-15T22:03:16.810Z,49.40
2017-10-15T22:05:44.893Z,50.00
2017-10-15T22:08:13.004Z,49.60
2017-10-15T22:10:41.889Z,50.60
2017-10-15T22:13:09.991Z,50.50
2017-10-15T22:15:38.874Z,50.70
2017-10-15T22:18:07.745Z,51.00
2017-10-15T22:20:41.416Z,50.80
2017-10-15T22:23:09.512Z,51.30
2017-10-15T22:25:37.622Z,50.90
2017-10-15T22:28:06.607Z,52.00
2017-10-15T22:30:35.479Z,51.40
2017-10-15T22:33:03.562Z,51.40
2017-10-15T22:35:32.436Z,51.30
2017-10-15T22:38:00.526Z,51.20
2017-10-15T22:40:29.381Z,50.90
2017-10-15T22:42:57.476Z,50.70
2017-10-15T22:45:25.578Z,51.30
2017-10-15T22:47:53.680Z,52.50
2017-10-15T22:50:22.544Z,52.50
2017-10-15T22:52:51.408Z,52.40
2017-10-15T22:55:19.508Z,52.30
2017-10-15T22:57:48.377Z,52.40
2017-10-15T23:00:16.477Z,52.30
2017-10-15T23:02:45.329Z,53.10
2017-10-15T23:05:13.437Z,53.10
2017-10-15T23:07:42.305Z,54.90
2017-10-15T23:10:11.197Z,56.00
2017-10-15T23:12:40.068Z,56.50
2017-10-15T23:15:08.184Z,56.40
2017-10-15T23:17:37.040Z,57.30
2017-10-15T23:20:05.147Z,57.20
2017-10-15T23:22:34.013Z,57.70
2017-10-15T23:25:02.115Z,57.40
2017-10-15T23:27:30.245Z,57.40
2017-10-15T23:29:58.357Z,57.10
2017-10-15T23:32:27.217Z,57.40
2017-10-15T23:34:55.311Z,57.20
2017-10-15T23:37:24.175Z,59.30
2017-10-15T23:39:52.274Z,59.20
2017-10-15T23:42:21.359Z,59.50
2017-10-15T23:44:49.466Z,59.40
2017-10-15T23:47:17.563Z,59.40
2017-10-15T23:49:45.676Z,59.20
2017-10-15T23:52:13.770Z,59.20
2017-10-15T23:54:42.634Z,59.40
2017-10-15T23:57:10.721Z,59.30
2017-10-15T23:59:39.581Z,58.60
